createdAt,value
2022-08-26T00:00:51.472Z,89.57
2022-08-26T00:03:21.388Z,89.30
2022-08-26T00:05:51.529Z,89.54
2022-08-26T00:08:21.832Z,89.45
2022-08-26T00:10:53.001Z,89.36
2022-08-26T00:13:21.910Z,89.36
2022-08-26T00:15:51.852Z,89.81
2022-08-26T00:18:22.255Z,89.80
2022-08-26T00:20:51.343Z,89.92
2022-08-26T00:23:20.043Z,89.94
2022-08-26T00:25:53.793Z,90.24
2022-08-26T00:28:22.709Z,90.31
2022-08-26T00:30:52.197Z,90.33
2022-08-26T00:33:21.398Z,90.43
2022-08-26T00:35:49.938Z,90.53
2022-08-26T00:38:19.580Z,90.67
2022-08-26T00:40:52.731Z,90.97
2022-08-26T00:43:23.044Z,91.29
2022-08-26T00:46:13.458Z,91.33
2022-08-26T00:48:45.556Z,91.19
2022-08-26T00:51:29.730Z,91.78
2022-08-26T00:54:05.359Z,91.68
2022-08-26T00:57:02.086Z,91.62
2022-08-26T00:59:33.177Z,91.93
2022-08-26T01:02:03.096Z,91.85
2022-08-26T01:04:33.417Z,91.84
2022-08-26T01:07:03.192Z,91.64
2022-08-26T01:09:34.542Z,91.50
2022-08-26T01:12:04.373Z,91.59
2022-08-26T01:14:36.843Z,91.55
2022-08-26T01:17:08.570Z,91.59
2022-08-26T01:19:47.723Z,91.59
2022-08-26T01:22:28.732Z,91.55
2022-08-26T01:25:01.092Z,91.72
2022-08-26T01:27:33.765Z,91.60
2022-08-26T01:30:04.312Z,91.69
2022-08-26T01:32:34.074Z,91.62
2022-08-26T01:35:02.973Z,91.55
2022-08-26T01:37:40.474Z,91.20
2022-08-26T01:40:14.637Z,91.29
2022-08-26T01:42:49.171Z,91.05
2022-08-26T01:45:31.518Z,91.52
2022-08-26T01:48:02.765Z,91.64
2022-08-26T01:50:34.495Z,91.21
2022-08-26T01:53:12.372Z,90.74
2022-08-26T01:55:45.151Z,89.81
2022-08-26T01:58:28.464Z,89.65
2022-08-26T02:00:57.123Z,88.71
2022-08-26T02:03:27.518Z,87.92
2022-08-26T02:06:00.264Z,87.24
2022-08-26T02:08:44.933Z,86.79
2022-08-26T02:11:13.666Z,86.32
2022-08-26T02:14:06.134Z,85.92
2022-08-26T02:16:42.214Z,86.08
2022-08-26T02:19:21.001Z,85.36
2022-08-26T02:21:55.995Z,85.26
2022-08-26T02:24:28.052Z,85.21
2022-08-26T02:26:58.445Z,85.50
2022-08-26T02:29:42.175Z,85.52
2022-08-26T02:32:11.477Z,84.77
2022-08-26T02:34:39.489Z,83.27
2022-08-26T02:37:13.854Z,82.39
2022-08-26T02:39:43.524Z,82.32
2022-08-26T02:42:11.585Z,82.21
2022-08-26T02:44:40.038Z,82.24
2022-08-26T02:47:09.059Z,82.09
2022-08-26T02:49:38.430Z,81.57
2022-08-26T02:52:07.513Z,81.15
2022-08-26T02:54:35.988Z,81.17
2022-08-26T02:57:04.184Z,81.42
2022-08-26T02:59:37.615Z,81.55
2022-08-26T03:02:05.860Z,82.10
2022-08-26T03:04:34.727Z,82.38
2022-08-26T03:07:04.001Z,82.23
2022-08-26T03:09:32.323Z,82.39
2022-08-26T03:12:01.337Z,82.07
2022-08-26T03:14:31.048Z,81.76
2022-08-26T03:19:45.496Z,81.39
2022-08-26T03:22:14.499Z,81.39
2022-08-26T03:24:43.503Z,81.72
2022-08-26T03:27:14.683Z,81.75
2022-08-26T03:30:01.312Z,81.93
2022-08-26T03:32:30.482Z,82.03
2022-08-26T03:34:58.464Z,82.26
2022-08-26T03:37:26.502Z,83.06
2022-08-26T03:39:56.957Z,82.22
2022-08-26T03:42:25.535Z,81.44
2022-08-26T03:44:53.581Z,79.25
2022-08-26T03:47:21.800Z,77.09
2022-08-26T03:49:49.772Z,75.53
2022-08-26T03:52:20.012Z,73.32
2022-08-26T03:54:48.303Z,72.60
2022-08-26T03:57:16.756Z,70.94
2022-08-26T03:59:46.090Z,70.54
2022-08-26T04:02:15.467Z,69.95
2022-08-26T04:04:43.749Z,69.27
2022-08-26T04:07:11.694Z,68.68
2022-08-26T04:09:42.311Z,67.89
2022-08-26T04:12:11.706Z,67.08
2022-08-26T04:14:40.524Z,65.84
2022-08-26T04:17:12.625Z,66.21
2022-08-26T04:19:41.458Z,66.74
2022-08-26T04:22:09.532Z,67.43
2022-08-26T04:24:40.326Z,68.08
2022-08-26T04:27:08.281Z,68.58
2022-08-26T04:29:36.336Z,69.24
2022-08-26T04:32:07.089Z,69.13
2022-08-26T04:34:36.334Z,67.70
2022-08-26T04:37:05.467Z,66.53
2022-08-26T04:39:35.241Z,65.33
2022-08-26T04:42:03.279Z,64.44
2022-08-26T04:44:31.679Z,63.81
2022-08-26T04:46:59.973Z,62.47
2022-08-26T04:49:28.043Z,60.91
2022-08-26T04:52:04.352Z,61.05
2022-08-26T04:54:34.891Z,60.39
2022-08-26T04:57:03.014Z,59.88
2022-08-26T04:59:30.981Z,60.12
2022-08-26T05:02:01.872Z,60.14
2022-08-26T05:04:30.968Z,60.72
2022-08-26T05:07:02.843Z,61.53
2022-08-26T05:09:32.382Z,61.51
2022-08-26T05:12:00.391Z,60.42
2022-08-26T05:14:28.584Z,57.85
2022-08-26T05:16:59.122Z,56.88
2022-08-26T05:19:28.052Z,56.17
2022-08-26T05:21:56.181Z,56.91
2022-08-26T05:24:25.352Z,57.84
2022-08-26T05:26:53.933Z,58.75
2022-08-26T05:29:22.103Z,58.32
2022-08-26T05:31:56.019Z,56.40
2022-08-26T05:34:24.215Z,56.19
2022-08-26T05:37:00.984Z,56.09
2022-08-26T05:39:29.030Z,55.69
2022-08-26T05:41:57.081Z,56.07
2022-08-26T05:44:26.418Z,56.69
2022-08-26T05:46:54.538Z,56.59
2022-08-26T05:49:22.667Z,56.64
2022-08-26T05:51:56.091Z,56.71
2022-08-26T05:54:24.051Z,56.04
2022-08-26T05:56:53.008Z,56.23
2022-08-26T05:59:24.695Z,56.40
2022-08-26T06:01:55.431Z,55.80
2022-08-26T06:04:29.890Z,55.99
2022-08-26T06:06:58.899Z,55.57
2022-08-26T06:09:27.825Z,55.05
2022-08-26T06:11:56.781Z,55.13
2022-08-26T06:14:26.473Z,54.24
2022-08-26T06:16:54.976Z,53.94
2022-08-26T06:19:23.474Z,53.72
2022-08-26T06:21:55.285Z,53.42
2022-08-26T06:24:42.262Z,51.74
2022-08-26T06:27:14.037Z,51.12
2022-08-26T06:29:43.484Z,51.14
2022-08-26T06:32:12.593Z,51.14
2022-08-26T06:34:40.721Z,51.72
2022-08-26T06:37:09.986Z,51.41
2022-08-26T06:39:41.081Z,49.72
2022-08-26T06:42:10.821Z,49.50
2022-08-26T06:44:40.993Z,49.50
2022-08-26T06:47:10.584Z,49.69
2022-08-26T06:49:38.639Z,49.70
2022-08-26T06:52:07.864Z,49.50
2022-08-26T06:54:38.865Z,48.83
2022-08-26T06:57:07.140Z,48.31
2022-08-26T06:59:35.098Z,48.01
2022-08-26T07:02:04.968Z,46.80
2022-08-26T07:04:34.422Z,46.55
2022-08-26T07:07:03.929Z,46.95
2022-08-26T07:09:36.839Z,47.13
2022-08-26T07:12:06.868Z,47.99
2022-08-26T07:14:35.857Z,47.20
2022-08-26T07:17:04.205Z,46.20
2022-08-26T07:19:32.457Z,46.53
2022-08-26T07:22:07.452Z,47.26
2022-08-26T07:24:41.132Z,46.89
2022-08-26T07:27:17.251Z,46.78
2022-08-26T07:29:45.552Z,47.28
2022-08-26T07:32:20.853Z,47.00
2022-08-26T07:34:52.560Z,46.87
2022-08-26T07:37:21.205Z,46.69
2022-08-26T07:39:49.574Z,46.79
2022-08-26T07:42:19.798Z,46.71
2022-08-26T07:44:48.699Z,46.96
2022-08-26T07:47:25.490Z,46.40
2022-08-26T07:49:58.316Z,46.72
2022-08-26T07:52:29.298Z,45.49
2022-08-26T07:54:58.983Z,44.69
2022-08-26T07:57:30.095Z,44.59
2022-08-26T07:59:58.641Z,45.06
2022-08-26T08:02:29.309Z,45.12
2022-08-26T08:04:58.699Z,46.05
2022-08-26T08:07:44.926Z,46.13
2022-08-26T08:10:19.135Z,46.09
2022-08-26T08:12:49.758Z,44.41
2022-08-26T08:15:20.833Z,43.41
2022-08-26T08:17:50.569Z,42.69
2022-08-26T08:20:20.914Z,41.62
2022-08-26T08:22:49.737Z,40.94
2022-08-26T08:25:18.067Z,41.23
2022-08-26T08:27:46.182Z,41.10
2022-08-26T08:30:22.831Z,42.01
2022-08-26T08:32:52.341Z,42.48
2022-08-26T08:35:24.534Z,42.73
2022-08-26T08:37:56.669Z,43.33
2022-08-26T08:40:27.584Z,43.65
2022-08-26T08:43:04.219Z,43.63
2022-08-26T08:45:37.199Z,44.33
2022-08-26T08:48:15.495Z,44.66
2022-08-26T08:50:50.711Z,44.83
2022-08-26T08:53:23.315Z,45.02
2022-08-26T08:55:56.128Z,45.40
2022-08-26T08:58:40.799Z,45.34
2022-08-26T09:01:22.117Z,45.33
2022-08-26T09:03:55.616Z,45.35
2022-08-26T09:06:29.607Z,45.02
2022-08-26T09:08:59.000Z,44.95
2022-08-26T09:11:27.161Z,45.23
2022-08-26T09:13:58.593Z,45.12
2022-08-26T09:16:42.477Z,45.07
2022-08-26T09:19:25.894Z,45.02
2022-08-26T09:22:04.687Z,45.37
2022-08-26T09:24:48.223Z,45.33
2022-08-26T09:27:45.657Z,45.14
2022-08-26T09:30:31.905Z,45.48
2022-08-26T09:33:14.704Z,46.80
2022-08-26T09:35:49.179Z,47.30
2022-08-26T09:38:26.919Z,47.72
2022-08-26T09:41:07.031Z,46.85
2022-08-26T09:43:36.905Z,46.49
2022-08-26T09:46:27.137Z,47.27
2022-08-26T09:48:56.327Z,47.50
2022-08-26T09:51:31.613Z,46.95
2022-08-26T09:54:02.692Z,44.60
2022-08-26T09:56:37.261Z,43.15
2022-08-26T09:59:15.115Z,42.94
2022-08-26T10:01:47.256Z,43.04
2022-08-26T10:04:24.599Z,43.87
2022-08-26T10:07:01.953Z,44.35
2022-08-26T10:09:36.511Z,45.56
2022-08-26T10:12:11.667Z,46.50
2022-08-26T10:15:04.297Z,45.87
2022-08-26T10:18:01.142Z,46.27
2022-08-26T10:20:37.038Z,46.52
2022-08-26T10:23:19.531Z,47.10
2022-08-26T10:26:10.367Z,45.98
2022-08-26T10:29:08.651Z,46.22
2022-08-26T10:31:47.861Z,46.38
2022-08-26T10:34:21.136Z,46.58
2022-08-26T10:37:14.409Z,46.70
2022-08-26T10:40:19.499Z,46.91
2022-08-26T10:42:55.137Z,46.58
2022-08-26T10:45:33.316Z,46.65
2022-08-26T10:48:07.689Z,46.71
2022-08-26T10:50:40.231Z,47.10
2022-08-26T10:53:47.243Z,46.82
2022-08-26T10:56:35.363Z,46.41
2022-08-26T10:59:21.366Z,46.33
2022-08-26T11:02:05.410Z,47.55
2022-08-26T11:05:06.065Z,48.47
2022-08-26T11:07:35.938Z,49.09
2022-08-26T11:10:08.576Z,49.65
2022-08-26T11:12:39.620Z,50.44
2022-08-26T11:15:14.539Z,51.13
2022-08-26T11:17:46.400Z,51.93
2022-08-26T11:20:24.483Z,52.20
2022-08-26T11:22:56.162Z,51.93
2022-08-26T11:25:30.918Z,51.76
2022-08-26T11:28:00.660Z,51.31
2022-08-26T11:30:39.457Z,50.78
2022-08-26T11:33:08.837Z,51.10
2022-08-26T11:35:48.812Z,51.71
2022-08-26T11:38:26.077Z,52.18
2022-08-26T11:41:19.778Z,51.51
2022-08-26T11:43:52.842Z,51.80
2022-08-26T11:46:32.037Z,51.63
2022-08-26T11:49:06.962Z,52.82
2022-08-26T11:51:40.843Z,54.37
2022-08-26T11:54:16.442Z,55.22
2022-08-26T11:56:48.938Z,56.72
2022-08-26T12:02:17.798Z,57.40
2022-08-26T12:04:51.528Z,57.30
2022-08-26T12:07:26.693Z,56.90
2022-08-26T12:10:00.636Z,56.73
2022-08-26T12:12:54.547Z,57.48
2022-08-26T12:15:25.174Z,57.97
2022-08-26T12:17:54.649Z,57.72
2022-08-26T12:20:59.708Z,57.36
2022-08-26T12:23:37.242Z,58.01
2022-08-26T12:26:27.312Z,58.48
2022-08-26T12:29:20.295Z,58.66
2022-08-26T12:32:16.398Z,59.67
2022-08-26T12:37:45.107Z,60.43
2022-08-26T12:40:29.679Z,60.73
2022-08-26T12:43:04.817Z,60.54
2022-08-26T12:45:42.097Z,60.82
2022-08-26T12:48:26.192Z,61.00
2022-08-26T12:50:54.521Z,61.34
2022-08-26T12:53:28.939Z,61.81
2022-08-26T12:56:01.937Z,62.40
2022-08-26T12:58:38.613Z,63.16
2022-08-26T13:01:10.692Z,63.26
2022-08-26T13:03:46.117Z,63.62
2022-08-26T13:06:31.897Z,64.11
2022-08-26T13:09:24.941Z,64.32
2022-08-26T13:11:53.788Z,64.52
2022-08-26T13:14:24.503Z,64.68
2022-08-26T13:16:54.315Z,65.05
2022-08-26T13:19:26.274Z,65.25
2022-08-26T13:21:59.915Z,65.37
2022-08-26T13:24:34.347Z,65.64
2022-08-26T13:27:03.654Z,65.87
2022-08-26T13:29:31.856Z,66.10
2022-08-26T13:32:01.215Z,66.28
2022-08-26T13:34:31.080Z,66.74
2022-08-26T13:37:01.660Z,66.83
2022-08-26T13:39:29.726Z,66.96
2022-08-26T13:41:57.756Z,67.20
2022-08-26T13:44:26.775Z,67.53
2022-08-26T13:46:55.213Z,68.04
2022-08-26T13:49:23.265Z,68.62
2022-08-26T13:51:51.447Z,68.44
2022-08-26T13:54:20.317Z,68.98
2022-08-26T13:56:48.302Z,69.30
2022-08-26T13:59:16.362Z,69.77
2022-08-26T14:01:44.424Z,69.70
2022-08-26T14:04:12.428Z,70.17
2022-08-26T14:06:41.531Z,70.63
2022-08-26T14:09:11.534Z,70.69
2022-08-26T14:11:53.799Z,70.92
2022-08-26T14:14:23.430Z,71.00
2022-08-26T14:16:59.251Z,70.65
2022-08-26T14:19:32.161Z,70.95
2022-08-26T14:22:01.402Z,71.12
2022-08-26T14:24:29.607Z,71.29
2022-08-26T14:26:58.848Z,71.57
2022-08-26T14:29:26.994Z,71.43
2022-08-26T14:31:57.352Z,71.72
2022-08-26T14:34:26.948Z,71.84
2022-08-26T14:36:55.945Z,72.04
2022-08-26T14:39:23.908Z,72.24
2022-08-26T14:41:56.593Z,72.20
2022-08-26T14:44:33.560Z,72.03
2022-08-26T14:47:05.092Z,72.53
2022-08-26T14:49:35.151Z,72.33
2022-08-26T14:52:03.515Z,72.54
2022-08-26T14:54:31.637Z,72.79
2022-08-26T14:57:06.215Z,72.38
2022-08-26T14:59:43.636Z,72.55
2022-08-26T15:02:29.759Z,72.90
2022-08-26T15:05:03.720Z,73.08
2022-08-26T15:07:50.127Z,72.89
2022-08-26T15:10:21.675Z,73.31
2022-08-26T15:12:50.392Z,73.25
2022-08-26T15:15:21.208Z,73.39
2022-08-26T15:17:49.341Z,73.64
2022-08-26T15:20:17.587Z,73.18
2022-08-26T15:22:47.125Z,73.69
2022-08-26T15:25:15.984Z,73.73
2022-08-26T15:27:43.973Z,74.03
2022-08-26T15:30:13.995Z,73.93
2022-08-26T15:32:41.822Z,74.12
2022-08-26T15:35:09.949Z,73.81
2022-08-26T15:37:39.986Z,73.64
2022-08-26T15:40:09.990Z,74.29
2022-08-26T15:42:38.267Z,74.28
2022-08-26T15:45:06.922Z,74.06
2022-08-26T15:47:39.310Z,74.58
2022-08-26T15:50:23.071Z,74.76
2022-08-26T15:52:50.913Z,74.74
2022-08-26T15:55:18.912Z,74.95
2022-08-26T15:57:52.259Z,74.87
2022-08-26T16:00:21.308Z,74.42
2022-08-26T16:02:49.391Z,75.05
2022-08-26T16:05:20.206Z,74.97
2022-08-26T16:07:49.133Z,75.09
2022-08-26T16:10:19.119Z,74.87
2022-08-26T16:12:49.298Z,75.20
2022-08-26T16:15:18.611Z,74.96
2022-08-26T16:17:46.594Z,74.97
2022-08-26T16:20:14.632Z,75.34
2022-08-26T16:22:42.583Z,75.44
2022-08-26T16:25:11.035Z,75.56
2022-08-26T16:27:39.281Z,75.40
2022-08-26T16:30:08.031Z,75.75
2022-08-26T16:32:35.977Z,75.85
2022-08-26T16:35:04.442Z,75.89
2022-08-26T16:37:34.579Z,75.84
2022-08-26T16:40:09.505Z,75.90
2022-08-26T16:42:40.398Z,75.87
2022-08-26T16:45:08.983Z,76.30
2022-08-26T16:47:39.478Z,76.39
2022-08-26T16:50:10.101Z,76.41
2022-08-26T16:52:39.020Z,76.52
2022-08-26T16:55:11.848Z,76.52
2022-08-26T16:57:45.465Z,76.37
2022-08-26T17:00:25.840Z,76.23
2022-08-26T17:02:53.469Z,76.46
2022-08-26T17:05:21.602Z,75.75
2022-08-26T17:07:49.802Z,76.02
2022-08-26T17:10:17.838Z,76.15
2022-08-26T17:12:46.085Z,76.33
2022-08-26T17:15:17.158Z,76.62
2022-08-26T17:17:45.723Z,76.72
2022-08-26T17:20:16.993Z,76.97
2022-08-26T17:22:49.680Z,76.65
2022-08-26T17:25:26.384Z,76.83
2022-08-26T17:27:57.745Z,77.19
2022-08-26T17:30:30.795Z,76.91
2022-08-26T17:32:59.129Z,76.83
2022-08-26T17:35:27.926Z,76.91
2022-08-26T17:37:57.081Z,76.72
2022-08-26T17:40:27.684Z,77.19
2022-08-26T17:42:56.509Z,77.16
2022-08-26T17:45:24.664Z,77.43
2022-08-26T17:47:55.027Z,77.58
2022-08-26T17:50:24.108Z,77.83
2022-08-26T17:52:53.194Z,77.90
2022-08-26T17:55:21.146Z,77.65
2022-08-26T17:57:53.487Z,78.01
2022-08-26T18:00:27.452Z,78.03
2022-08-26T18:02:56.305Z,78.22
2022-08-26T18:05:25.555Z,78.20
2022-08-26T18:07:53.847Z,78.27
2022-08-26T18:10:22.163Z,78.38
2022-08-26T18:12:50.329Z,78.33
2022-08-26T18:15:19.213Z,78.23
2022-08-26T18:17:47.628Z,77.84
2022-08-26T18:20:18.420Z,77.62
2022-08-26T18:22:48.653Z,77.72
2022-08-26T18:25:17.937Z,77.74
2022-08-26T18:27:46.155Z,77.90
2022-08-26T18:30:19.947Z,77.88
2022-08-26T18:32:49.417Z,78.04
2022-08-26T18:35:17.545Z,77.92
2022-08-26T18:37:46.864Z,78.07
2022-08-26T18:40:16.878Z,77.72
2022-08-26T18:42:49.276Z,77.91
2022-08-26T18:45:23.353Z,78.02
2022-08-26T18:47:51.392Z,78.16
2022-08-26T18:50:19.603Z,77.81
2022-08-26T18:52:52.046Z,78.19
2022-08-26T18:55:20.123Z,78.36
2022-08-26T18:57:48.224Z,78.43
2022-08-26T19:00:16.686Z,78.42
2022-08-26T19:02:51.733Z,78.08
2022-08-26T19:05:20.341Z,78.42
2022-08-26T19:07:49.819Z,78.74
2022-08-26T19:10:17.855Z,78.69
2022-08-26T19:12:46.072Z,78.89
2022-08-26T19:15:20.454Z,79.07
2022-08-26T19:17:48.797Z,78.95
2022-08-26T19:20:17.429Z,78.97
2022-08-26T19:22:46.640Z,78.85
2022-08-26T19:25:14.824Z,79.28
2022-08-26T19:27:42.873Z,78.78
2022-08-26T19:30:12.108Z,78.87
2022-08-26T19:32:40.053Z,79.13
2022-08-26T19:35:09.068Z,79.17
2022-08-26T19:37:38.106Z,79.01
2022-08-26T19:40:07.301Z,79.29
2022-08-26T19:42:35.536Z,79.29
2022-08-26T19:45:24.411Z,79.28
2022-08-26T19:47:54.702Z,79.44
2022-08-26T19:50:23.346Z,79.12
2022-08-26T19:52:51.463Z,79.10
2022-08-26T19:55:21.549Z,79.21
2022-08-26T19:57:51.826Z,79.46
2022-08-26T20:00:24.281Z,79.27
2022-08-26T20:02:53.116Z,79.52
2022-08-26T20:05:23.862Z,79.12
2022-08-26T20:07:52.980Z,79.22
2022-08-26T20:10:23.772Z,79.49
2022-08-26T20:12:55.189Z,79.44
2022-08-26T20:15:24.113Z,79.54
2022-08-26T20:17:52.887Z,79.23
2022-08-26T20:20:40.443Z,79.75
2022-08-26T20:23:08.807Z,79.68
2022-08-26T20:25:36.867Z,79.79
2022-08-26T20:28:06.090Z,79.69
2022-08-26T20:30:34.195Z,80.01
2022-08-26T20:33:02.198Z,79.69
2022-08-26T20:35:31.924Z,80.11
2022-08-26T20:38:00.809Z,79.80
2022-08-26T20:40:29.967Z,79.99
2022-08-26T20:42:58.186Z,79.91
2022-08-26T20:45:27.309Z,80.11
2022-08-26T20:47:55.490Z,80.15
2022-08-26T20:50:24.063Z,80.32
2022-08-26T20:52:54.210Z,80.22
2022-08-26T20:55:22.420Z,80.20
2022-08-26T20:57:52.105Z,80.22
2022-08-26T21:00:26.372Z,80.36
2022-08-26T21:02:57.686Z,80.39
2022-08-26T21:05:25.760Z,80.42
2022-08-26T21:07:53.833Z,80.60
2022-08-26T21:10:24.134Z,80.43
2022-08-26T21:12:52.186Z,80.21
2022-08-26T21:15:20.178Z,80.42
2022-08-26T21:17:49.025Z,80.33
2022-08-26T21:20:17.197Z,80.20
2022-08-26T21:22:45.347Z,80.40
2022-08-26T21:25:13.595Z,80.76
2022-08-26T21:27:41.692Z,80.95
2022-08-26T21:30:10.765Z,80.86
2022-08-26T21:32:38.885Z,80.75
2022-08-26T21:35:07.345Z,80.88
2022-08-26T21:37:35.549Z,80.77
2022-08-26T21:40:06.622Z,80.71
2022-08-26T21:42:35.652Z,80.68
2022-08-26T21:45:04.650Z,80.87
2022-08-26T21:47:33.420Z,80.84
2022-08-26T21:50:01.503Z,80.68
2022-08-26T21:52:31.381Z,81.19
2022-08-26T21:55:04.804Z,80.98
2022-08-26T21:57:38.223Z,81.21
2022-08-26T22:00:10.237Z,81.08
2022-08-26T22:02:38.315Z,81.20
2022-08-26T22:05:06.727Z,81.44
2022-08-26T22:07:39.157Z,81.31
2022-08-26T22:10:08.811Z,81.44
2022-08-26T22:12:38.573Z,81.57
2022-08-26T22:15:07.559Z,81.24
2022-08-26T22:17:36.233Z,81.52
2022-08-26T22:20:05.583Z,81.62
2022-08-26T22:22:39.942Z,81.62
2022-08-26T22:25:08.215Z,81.67
2022-08-26T22:27:42.780Z,81.56
2022-08-26T22:30:12.642Z,82.04
2022-08-26T22:32:41.141Z,82.02
2022-08-26T22:35:28.761Z,82.13
2022-08-26T22:37:59.496Z,82.48
2022-08-26T22:40:27.534Z,82.63
2022-08-26T22:43:00.330Z,82.76
2022-08-26T22:45:31.888Z,82.68
2022-08-26T22:48:05.905Z,82.74
2022-08-26T22:50:34.038Z,83.13
2022-08-26T22:53:03.239Z,82.71
2022-08-26T22:55:31.217Z,82.95
2022-08-26T22:57:59.166Z,83.01
2022-08-26T23:00:32.468Z,83.01
2022-08-26T23:03:02.719Z,83.22
2022-08-26T23:05:31.644Z,83.43
2022-08-26T23:08:00.079Z,83.33
2022-08-26T23:10:28.424Z,83.29
2022-08-26T23:12:56.518Z,83.42
2022-08-26T23:15:24.861Z,83.61
2022-08-26T23:17:58.475Z,83.61
2022-08-26T23:20:32.536Z,83.59
2022-08-26T23:23:00.672Z,83.84
2022-08-26T23:25:30.388Z,83.55
2022-08-26T23:28:00.258Z,83.84
2022-08-26T23:30:31.550Z,84.03
2022-08-26T23:32:59.679Z,83.96
2022-08-26T23:35:30.118Z,83.76
2022-08-26T23:37:59.035Z,83.98
2022-08-26T23:40:32.538Z,83.88
2022-08-26T23:43:04.392Z,83.76
2022-08-26T23:45:33.106Z,83.80
2022-08-26T23:48:01.947Z,84.01
2022-08-26T23:50:51.489Z,84.07
2022-08-26T23:53:22.785Z,83.80
2022-08-26T23:55:53.402Z,83.65
2022-08-26T23:58:22.811Z,83.49
